Latest Coastal Weather Observations for Gold Coast Seaway

IDQ60701

Issued at 9:31 pm EST Friday 5 June 2020 (issued every 10 minutes, with the page automatically refreshed every 10 minutes)

About coastal observations | Map of coastal stations | Coastal observations for QLD | Marine services | Other Formats
Station Details ID: 040764 Name: GOLD COAST SEAWAY Lat: -27.94 Lon: 153.43 Height: 2.98 m
Data from the previous 72 hours. | See also: Recent months at Gold Coast Seaway
Date/Time
EST
Wind Sea
Height
m
Swell Vis
km
Cloud Weather Temp
°C
Press
hPa
Rain since
9am
mm
Dir  Spd
kts
Gust
kts
Height
m
Period
s
Dir
05/09:30pm SSW 8 10 - - - - - - - 15.2 1026.4 0.0
05/09:00pm SSW 8 10 - - - - - - - 15.3 1026.3 0.0
05/08:30pm S 9 12 - - - - - - - 15.7 1026.2 0.0
05/08:00pm S 9 12 - - - - - - - 15.8 1026.3 0.0
05/07:30pm S 10 14 - - - - - - - 16.4 1026.2 0.0
05/07:00pm S 12 16 - - - - - - - 16.7 1026.1 0.0
05/06:30pm S 16 20 - - - - - - - 17.4 1025.7 0.0
05/06:00pm SSE 18 21 - - - - - - - 18.1 1025.3 0.0
05/05:30pm SSE 18 21 - - - - - - - 18.4 1025.0 0.0
05/05:00pm SSE 19 22 - - - - - - - 18.8 1024.7 0.0
05/04:30pm SSE 18 21 - - - - - - - 19.2 1024.6 0.0
05/04:00pm SSE 17 19 - - - - - - - 20.2 1024.5 0.0
05/03:30pm SE 16 19 - - - - - - - 20.4 1024.6 0.0
05/03:00pm SE 16 19 - - - - - - - 20.7 1024.7 0.0
05/02:30pm SE 16 18 - - - - - - - 20.7 1024.9 0.0
05/02:00pm SSE 16 20 - - - - - - - 21.4 1025.0 0.0
05/01:30pm SSE 15 19 - - - - - - - 21.7 1025.4 0.0
05/01:00pm SSE 18 22 - - - - - - - 21.5 1025.8 0.0
05/12:30pm SSE 17 21 - - - - - - - 22.0 1026.2 0.0
05/12:00pm S 15 18 - - - - - - - 22.1 1026.7 0.0
05/11:30am SSE 16 21 - - - - - - - 21.2 1027.4 0.0
05/11:00am SSE 17 21 - - - - - - - 21.5 1027.8 0.0
05/10:30am SSE 15 18 - - - - - - - 21.0 1028.1 0.0
05/10:00am S 13 16 - - - - - - - 20.5 1028.3 0.0
05/09:30am S 12 18 - - - - - - - 20.0 1028.4 0.0
05/09:00am S 9 12 - - - - - - - 18.4 1028.4 0.0
05/08:30am S 11 17 - - - - - - - 18.5 1028.0 0.0
05/08:00am S 12 16 - - - - - - - 17.7 1027.7 0.0
05/07:30am SSW 12 16 - - - - - - - 16.4 1027.5 0.0
05/07:00am S 11 18 - - - - - - - 15.5 1027.1 0.0
05/06:30am S 11 16 - - - - - - - 14.8 1027.1 0.0
05/06:00am SSW 7 10 - - - - - - - 15.1 1026.9 0.0
05/05:30am SSW 9 13 - - - - - - - 15.4 1026.7 0.0
05/05:00am SSW 11 17 - - - - - - - 15.4 1026.4 0.0
05/04:30am SSW 10 15 - - - - - - - 15.6 1026.2 0.0
05/04:00am SSW 8 13 - - - - - - - 15.2 1026.3 0.0
05/03:30am SSW 9 14 - - - - - - - 15.2 1026.6 0.0
05/03:00am SSW 9 13 - - - - - - - 15.7 1026.3 0.0
05/02:30am S 12 17 - - - - - - - 16.0 1026.7 0.0
05/02:00am SSW 8 14 - - - - - - - 15.9 1027.0 0.0
05/01:30am S 7 9 - - - - - - - 15.5 1027.5 0.0
05/01:00am SSW 4 8 - - - - - - - 15.3 1027.6 0.0
05/12:30am SSW 6 10 - - - - - - - 15.7 1027.8 0.0
05/12:00am SSW 5 7 - - - - - - - 15.9 1027.8 0.0
 
Date/Time
EST
Wind Sea
Height
m
Swell Vis
km
Cloud Weather Temp
°C
Press
hPa
Rain since
9am
mm
Dir  Spd
kts
Gust
kts
Height
m
Period
s
Dir
04/11:30pm SSW 7 13 - - - - - - - 16.1 1028.1 0.0
04/11:00pm SSW 7 11 - - - - - - - 15.7 1028.1 0.0
04/10:30pm SSW 5 8 - - - - - - - 15.5 1028.4 0.0
04/10:00pm SW 4 5 - - - - - - - 15.7 1028.4 0.0
04/09:30pm S 8 11 - - - - - - - 16.5 1028.5 0.0
04/09:00pm S 8 15 - - - - - - - 16.7 1028.7 0.0
04/08:30pm S 8 13 - - - - - - - 16.6 1028.5 0.0
04/08:00pm S 10 14 - - - - - - - 16.7 1028.4 0.0
04/07:30pm S 13 17 - - - - - - - 16.8 1028.4 0.0
04/07:00pm S 11 15 - - - - - - - 17.0 1028.3 0.0
04/06:30pm S 9 14 - - - - - - - 16.6 1028.2 0.0
04/06:00pm S 8 12 - - - - - - - 16.4 1027.9 0.0
04/05:30pm S 9 12 - - - - - - - 16.9 1027.6 0.0
04/05:00pm S 11 14 - - - - - - - 17.5 1027.1 0.0
04/04:30pm S 14 20 - - - - - - - 18.7 1026.9 0.0
04/04:00pm S 19 26 - - - - - - - 18.7 1026.8 0.0
04/03:30pm S 17 21 - - - - - - - 19.7 1026.6 0.0
04/03:00pm S 17 24 - - - - - - - 20.3 1026.5 0.0
04/02:47pm S 16 26 - - - - - - - 20.5 1026.5 0.0
04/02:30pm S 16 20 - - - - - - - 20.6 1026.6 0.0
04/02:00pm S 18 24 - - - - - - - 20.5 1026.8 0.0
04/01:30pm S 17 22 - - - - - - - 20.8 1026.8 0.0
04/01:00pm S 18 24 - - - - - - - 19.5 1027.0 0.0
04/12:30pm S 16 23 - - - - - - - 19.8 1027.4 0.0
04/12:00pm S 17 24 - - - - - - - 19.0 1027.8 0.0
04/11:34am S 16 26 - - - - - - - 20.2 1027.9 0.0
04/11:30am S 15 21 - - - - - - - 20.4 1027.8 0.0
04/11:00am S 15 22 - - - - - - - 19.3 1027.9 0.0
04/10:30am S 16 21 - - - - - - - 19.5 1028.1 0.0
04/10:00am S 16 23 - - - - - - - 19.1 1028.3 0.0
04/09:30am S 15 20 - - - - - - - 18.0 1028.3 0.0
04/09:00am S 15 22 - - - - - - - 17.3 1028.2 0.0
04/08:30am S 14 18 - - - - - - - 17.4 1027.7 0.0
04/08:00am S 10 16 - - - - - - - 16.1 1027.6 0.0
04/07:30am S 9 13 - - - - - - - 15.7 1027.1 0.0
04/07:00am S 11 16 - - - - - - - 15.0 1026.4 0.0
04/06:30am S 9 13 - - - - - - - 14.6 1026.1 0.0
04/06:00am SSW 8 12 - - - - - - - 14.3 1025.8 0.0
04/05:30am SSW 9 16 - - - - - - - 14.8 1025.5 0.0
04/05:00am SSW 9 13 - - - - - - - 14.3 1025.0 0.0
04/04:30am SSW 9 14 - - - - - - - 13.9 1024.8 0.0
04/04:00am S 9 14 - - - - - - - 13.9 1024.9 0.0
04/03:30am S 9 12 - - - - - - - 13.7 1025.0 0.0
04/03:00am SSW 10 16 - - - - - - - 14.0 1024.8 0.0
04/02:30am SSW 7 11 - - - - - - - 13.5 1025.0 0.0
04/02:00am SW 6 9 - - - - - - - 14.3 1025.0 0.0
04/01:30am SSW 8 12 - - - - - - - 14.9 1025.1 0.0
04/01:00am SSW 7 12 - - - - - - - 14.9 1025.1 0.0
04/12:30am SSW 8 12 - - - - - - - 14.9 1025.1 0.0
04/12:00am SSW 7 10 - - - - - - - 15.0 1025.2 0.0
 
Date/Time
EST
Wind Sea
Height
m
Swell Vis
km
Cloud Weather Temp
°C
Press
hPa
Rain since
9am
mm
Dir  Spd
kts
Gust
kts
Height
m
Period
s
Dir
03/11:30pm SSW 6 8 - - - - - - - 15.4 1025.1 0.0
03/11:00pm SSW 7 10 - - - - - - - 15.6 1025.0 0.0
03/10:30pm SSW 9 14 - - - - - - - 15.9 1025.1 0.0
03/10:00pm SSW 9 14 - - - - - - - 15.8 1025.1 0.0
03/09:30pm SSW 7 10 - - - - - - - 15.1 1025.1 0.0
03/09:00pm SSW 8 10 - - - - - - - 15.7 1024.8 0.0
03/08:30pm SSW 8 12 - - - - - - - 15.6 1024.7 0.0
03/08:00pm SSW 9 13 - - - - - - - 15.5 1024.5 0.0
03/07:30pm SSW 9 14 - - - - - - - 15.4 1024.2 0.0
03/07:00pm S 9 13 - - - - - - - 15.8 1023.7 0.0
03/06:30pm S 13 17 - - - - - - - 16.4 1023.2 0.0
03/06:00pm SSE 17 21 - - - - - - - 17.4 1022.5 0.0
03/05:30pm SSE 15 19 - - - - - - - 17.9 1022.0 0.0
03/05:00pm SE 8 10 - - - - - - - 17.6 1021.3 0.0
03/04:30pm SE 9 12 - - - - - - - 18.1 1021.1 0.0
03/04:00pm ESE 7 9 - - - - - - - 18.7 1020.6 0.0
03/03:30pm E 7 8 - - - - - - - 19.0 1020.2 0.0
03/03:00pm ESE 7 9 - - - - - - - 19.3 1020.0 0.0
03/02:30pm E 6 8 - - - - - - - 19.5 1019.8 0.0
03/02:00pm E 7 9 - - - - - - - 19.9 1019.7 0.0
03/01:30pm E 7 9 - - - - - - - 19.6 1019.6 0.0
03/01:00pm E 7 9 - - - - - - - 19.7 1019.8 0.0
03/12:30pm ESE 8 9 - - - - - - - 20.1 1020.1 0.0
03/12:00pm SE 6 8 - - - - - - - 20.0 1020.5 0.0
03/11:30am ESE 5 8 - - - - - - - 20.0 1020.7 0.0
03/11:00am NW 3 5 - - - - - - - 19.3 1021.0 0.0
03/10:30am NW 6 7 - - - - - - - 17.8 1021.4 0.0
03/10:00am NW 7 8 - - - - - - - 16.9 1021.4 0.0
03/09:30am NW 8 10 - - - - - - - 15.6 1021.3 0.0
03/09:00am NW 8 10 - - - - - - - 14.8 1021.4 0.0
03/08:30am NW 9 10 - - - - - - - 13.6 1021.3 0.0
03/08:00am NW 8 10 - - - - - - - 12.4 1021.1 0.0
03/07:30am WNW 8 9 - - - - - - - 11.0 1020.9 0.0
03/07:00am WNW 8 9 - - - - - - - 10.4 1020.4 0.0
03/06:30am WNW 8 9 - - - - - - - 10.1 1020.0 0.0
03/06:00am WNW 8 9 - - - - - - - 10.3 1019.9 0.0
03/05:30am NW 8 9 - - - - - - - 10.9 1019.5 0.0
03/05:00am NW 6 8 - - - - - - - 11.1 1019.1 0.0
03/04:30am WNW 8 10 - - - - - - - 11.7 1018.8 0.0
03/04:00am NW 7 9 - - - - - - - 12.3 1018.6 0.0
03/03:30am NW 9 11 - - - - - - - 12.3 1018.5 0.0
03/03:00am WNW 9 10 - - - - - - - 12.4 1018.4 0.0
03/02:30am NW 11 13 - - - - - - - 12.6 1018.4 0.0
03/02:00am WNW 10 12 - - - - - - - 12.8 1018.5 0.0
03/01:30am W 9 14 - - - - - - - 13.0 1018.7 0.0
03/01:00am W 11 15 - - - - - - - 13.2 1018.8 0.0
03/12:30am WNW 15 18 - - - - - - - 13.5 1018.8 0.0
03/12:25am WNW 14 17 - - - - - - - 13.6 1018.9 0.0
03/12:00am NW 5 7 - - - - - - - 13.0 1019.7 0.0
 
Date/Time
EST
Wind Sea
Height
m
Swell Vis
km
Cloud Weather Temp
°C
Press
hPa
Rain since
9am
mm
Dir  Spd
kts
Gust
kts
Height
m
Period
s
Dir
02/11:30pm W 9 13 - - - - - - - 13.8 1019.4 0.0
02/11:00pm WNW 13 17 - - - - - - - 14.4 1019.5 0.0
02/10:30pm WNW 13 16 - - - - - - - 14.3 1019.6 0.0
02/10:00pm WNW 17 20 - - - - - - - 14.5 1019.5 0.0

Other formats

Comma delimited format used in spreadsheet applications
http://www.bom.gov.au/fwo/IDQ60701/IDQ60701.94580.axf

JavaScript Object Notation format (JSON) in row-major order
http://www.bom.gov.au/fwo/IDQ60701/IDQ60701.94580.json

Data quality

Most of these data are generated automatically and are frequently updated. Quality checks on data are not normally performed. It is possible for incorrect values to appear. Refer to information at About Latest Weather Observations and please check the disclaimer before using these data.